sensor_id;sensor_type;location;lat;lon;timestamp;P1;P2;P0
40569;PMS5003;26270;34.428;-119.710;2023-02-03T00:01:44;5;4;
40569;PMS5003;26270;34.428;-119.710;2023-02-03T00:04:12;5;4;
40569;PMS5003;26270;34.428;-119.710;2023-02-03T00:06:40;4;3;
40569;PMS5003;26270;34.428;-119.710;2023-02-03T00:09:08;6;4;
40569;PMS5003;26270;34.428;-119.710;2023-02-03T00:11:36;5;4;
40569;PMS5003;26270;34.428;-119.710;2023-02-03T00:14:05;6;6;
40569;PMS5003;26270;34.428;-119.710;2023-02-03T00:16:33;5;4;
40569;PMS5003;26270;34.428;-119.710;2023-02-03T00:19:02;5;5;
40569;PMS5003;26270;34.428;-119.710;2023-02-03T00:21:30;4;3;
40569;PMS5003;26270;34.428;-119.710;2023-02-03T00:23:58;4;3;
40569;PMS5003;26270;34.428;-119.710;2023-02-03T00:26:26;4;3;
40569;PMS5003;26270;34.428;-119.710;2023-02-03T00:28:54;5;5;
40569;PMS5003;26270;34.428;-119.710;2023-02-03T00:31:23;7;5;
40569;PMS5003;26270;34.428;-119.710;2023-02-03T00:33:53;4;4;
40569;PMS5003;26270;34.428;-119.710;2023-02-03T00:36:22;5;5;
40569;PMS5003;26270;34.428;-119.710;2023-02-03T00:38:51;6;5;
40569;PMS5003;26270;34.428;-119.710;2023-02-03T00:41:20;7;4;
40569;PMS5003;26270;34.428;-119.710;2023-02-03T00:43:48;4;4;
40569;PMS5003;26270;34.428;-119.710;2023-02-03T00:46:16;6;5;
40569;PMS5003;26270;34.428;-119.710;2023-02-03T00:48:43;6;4;
40569;PMS5003;26270;34.428;-119.710;2023-02-03T00:51:11;4;4;
40569;PMS5003;26270;34.428;-119.710;2023-02-03T00:53:39;4;4;
40569;PMS5003;26270;34.428;-119.710;2023-02-03T00:56:07;6;5;
40569;PMS5003;26270;34.428;-119.710;2023-02-03T00:58:34;8;6;
40569;PMS5003;26270;34.428;-119.710;2023-02-03T01:01:03;9;5;
40569;PMS5003;26270;34.428;-119.710;2023-02-03T01:03:31;5;5;
40569;PMS5003;26270;34.428;-119.710;2023-02-03T01:06:07;8;5;
40569;PMS5003;26270;34.428;-119.710;2023-02-03T01:08:36;7;7;
40569;PMS5003;26270;34.428;-119.710;2023-02-03T01:11:05;7;6;
40569;PMS5003;26270;34.428;-119.710;2023-02-03T01:13:34;7;7;
40569;PMS5003;26270;34.428;-119.710;2023-02-03T01:16:05;11;10;
40569;PMS5003;26270;34.428;-119.710;2023-02-03T01:18:33;10;9;
40569;PMS5003;26270;34.428;-119.710;2023-02-03T01:21:04;10;8;
40569;PMS5003;26270;34.428;-119.710;2023-02-03T01:23:33;8;8;
40569;PMS5003;26270;34.428;-119.710;2023-02-03T01:26:02;10;10;
40569;PMS5003;26270;34.428;-119.710;2023-02-03T01:28:30;11;9;
40569;PMS5003;26270;34.428;-119.710;2023-02-03T01:31:07;7;6;
40569;PMS5003;26270;34.428;-119.710;2023-02-03T01:33:36;9;9;
40569;PMS5003;26270;34.428;-119.710;2023-02-03T01:36:05;10;9;
40569;PMS5003;26270;34.428;-119.710;2023-02-03T01:38:35;11;9;
40569;PMS5003;26270;34.428;-119.710;2023-02-03T01:41:05;13;10;
40569;PMS5003;26270;34.428;-119.710;2023-02-03T01:43:38;13;13;
40569;PMS5003;26270;34.428;-119.710;2023-02-03T01:46:13;19;18;
40569;PMS5003;26270;34.428;-119.710;2023-02-03T01:48:51;16;15;
40569;PMS5003;26270;34.428;-119.710;2023-02-03T01:51:21;11;11;
40569;PMS5003;26270;34.428;-119.710;2023-02-03T01:53:50;12;11;
40569;PMS5003;26270;34.428;-119.710;2023-02-03T01:56:20;16;16;
40569;PMS5003;26270;34.428;-119.710;2023-02-03T01:58:49;20;18;
40569;PMS5003;26270;34.428;-119.710;2023-02-03T02:01:17;18;14;
40569;PMS5003;26270;34.428;-119.710;2023-02-03T02:03:47;10;10;
40569;PMS5003;26270;34.428;-119.710;2023-02-03T02:06:19;9;6;
40569;PMS5003;26270;34.428;-119.710;2023-02-03T02:08:49;5;5;
40569;PMS5003;26270;34.428;-119.710;2023-02-03T02:11:18;5;5;
40569;PMS5003;26270;34.428;-119.710;2023-02-03T02:13:47;8;7;
40569;PMS5003;26270;34.428;-119.710;2023-02-03T02:16:20;6;6;
40569;PMS5003;26270;34.428;-119.710;2023-02-03T02:18:59;5;5;
40569;PMS5003;26270;34.428;-119.710;2023-02-03T02:21:47;7;5;
40569;PMS5003;26270;34.428;-119.710;2023-02-03T02:24:30;5;5;
40569;PMS5003;26270;34.428;-119.710;2023-02-03T02:27:26;13;10;
40569;PMS5003;26270;34.428;-119.710;2023-02-03T02:30:35;6;6;
40569;PMS5003;26270;34.428;-119.710;2023-02-03T02:33:16;10;8;
40569;PMS5003;26270;34.428;-119.710;2023-02-03T02:35:54;13;10;
40569;PMS5003;26270;34.428;-119.710;2023-02-03T02:38:34;10;10;
40569;PMS5003;26270;34.428;-119.710;2023-02-03T02:41:10;8;8;
40569;PMS5003;26270;34.428;-119.710;2023-02-03T02:43:43;7;6;
40569;PMS5003;26270;34.428;-119.710;2023-02-03T02:46:19;6;6;
40569;PMS5003;26270;34.428;-119.710;2023-02-03T02:48:54;4;4;
40569;PMS5003;26270;34.428;-119.710;2023-02-03T02:51:26;6;6;
40569;PMS5003;26270;34.428;-119.710;2023-02-03T02:53:58;9;7;
40569;PMS5003;26270;34.428;-119.710;2023-02-03T02:56:29;5;5;
40569;PMS5003;26270;34.428;-119.710;2023-02-03T02:59:00;7;7;
40569;PMS5003;26270;34.428;-119.710;2023-02-03T03:01:31;8;6;
40569;PMS5003;26270;34.428;-119.710;2023-02-03T03:04:00;8;8;
40569;PMS5003;26270;34.428;-119.710;2023-02-03T03:06:32;10;10;
40569;PMS5003;26270;34.428;-119.710;2023-02-03T03:09:03;6;6;
40569;PMS5003;26270;34.428;-119.710;2023-02-03T03:11:36;8;8;
40569;PMS5003;26270;34.428;-119.710;2023-02-03T03:14:07;5;5;
40569;PMS5003;26270;34.428;-119.710;2023-02-03T03:16:39;5;5;
40569;PMS5003;26270;34.428;-119.710;2023-02-03T03:19:14;6;6;
40569;PMS5003;26270;34.428;-119.710;2023-02-03T03:21:48;5;5;
40569;PMS5003;26270;34.428;-119.710;2023-02-03T03:24:23;4;4;
40569;PMS5003;26270;34.428;-119.710;2023-02-03T03:26:56;6;6;
40569;PMS5003;26270;34.428;-119.710;2023-02-03T03:29:32;7;7;
40569;PMS5003;26270;34.428;-119.710;2023-02-03T03:32:05;8;7;
40569;PMS5003;26270;34.428;-119.710;2023-02-03T03:34:34;10;9;
40569;PMS5003;26270;34.428;-119.710;2023-02-03T03:37:05;14;10;
40569;PMS5003;26270;34.428;-119.710;2023-02-03T03:39:40;9;9;
40569;PMS5003;26270;34.428;-119.710;2023-02-03T03:42:13;10;10;
40569;PMS5003;26270;34.428;-119.710;2023-02-03T03:44:49;10;10;
40569;PMS5003;26270;34.428;-119.710;2023-02-03T03:47:23;11;11;
40569;PMS5003;26270;34.428;-119.710;2023-02-03T03:49:56;12;11;
40569;PMS5003;26270;34.428;-119.710;2023-02-03T03:52:29;10;10;
40569;PMS5003;26270;34.428;-119.710;2023-02-03T03:55:00;12;11;
40569;PMS5003;26270;34.428;-119.710;2023-02-03T03:57:32;11;11;
40569;PMS5003;26270;34.428;-119.710;2023-02-03T04:00:07;6;6;
40569;PMS5003;26270;34.428;-119.710;2023-02-03T04:02:39;7;6;
40569;PMS5003;26270;34.428;-119.710;2023-02-03T04:05:08;6;5;
40569;PMS5003;26270;34.428;-119.710;2023-02-03T04:07:38;8;8;
40569;PMS5003;26270;34.428;-119.710;2023-02-03T04:10:11;9;8;
40569;PMS5003;26270;34.428;-119.710;2023-02-03T04:12:46;10;10;
40569;PMS5003;26270;34.428;-119.710;2023-02-03T04:15:15;10;9;
40569;PMS5003;26270;34.428;-119.710;2023-02-03T04:17:43;9;9;
40569;PMS5003;26270;34.428;-119.710;2023-02-03T04:20:12;9;8;
40569;PMS5003;26270;34.428;-119.710;2023-02-03T04:22:41;10;8;
40569;PMS5003;26270;34.428;-119.710;2023-02-03T04:25:10;12;11;
40569;PMS5003;26270;34.428;-119.710;2023-02-03T04:27:39;15;13;
40569;PMS5003;26270;34.428;-119.710;2023-02-03T04:30:08;17;17;
40569;PMS5003;26270;34.428;-119.710;2023-02-03T04:32:37;17;16;
40569;PMS5003;26270;34.428;-119.710;2023-02-03T04:35:06;22;19;
40569;PMS5003;26270;34.428;-119.710;2023-02-03T04:37:35;15;15;
40569;PMS5003;26270;34.428;-119.710;2023-02-03T04:40:05;14;13;
40569;PMS5003;26270;34.428;-119.710;2023-02-03T04:42:35;16;15;
40569;PMS5003;26270;34.428;-119.710;2023-02-03T04:45:04;15;15;
40569;PMS5003;26270;34.428;-119.710;2023-02-03T04:47:33;12;12;
40569;PMS5003;26270;34.428;-119.710;2023-02-03T04:50:02;12;11;
40569;PMS5003;26270;34.428;-119.710;2023-02-03T04:52:30;12;12;
40569;PMS5003;26270;34.428;-119.710;2023-02-03T04:54:59;12;11;
40569;PMS5003;26270;34.428;-119.710;2023-02-03T04:57:27;10;10;
40569;PMS5003;26270;34.428;-119.710;2023-02-03T04:59:55;12;11;
40569;PMS5003;26270;34.428;-119.710;2023-02-03T05:03:20;10;9;
40569;PMS5003;26270;34.428;-119.710;2023-02-03T05:05:48;12;11;
40569;PMS5003;26270;34.428;-119.710;2023-02-03T05:08:16;10;9;
40569;PMS5003;26270;34.428;-119.710;2023-02-03T05:10:45;7;7;
40569;PMS5003;26270;34.428;-119.710;2023-02-03T05:13:13;9;8;
40569;PMS5003;26270;34.428;-119.710;2023-02-03T05:15:42;10;10;
40569;PMS5003;26270;34.428;-119.710;2023-02-03T05:18:10;6;6;
40569;PMS5003;26270;34.428;-119.710;2023-02-03T05:20:39;7;6;
40569;PMS5003;26270;34.428;-119.710;2023-02-03T05:23:08;7;7;
40569;PMS5003;26270;34.428;-119.710;2023-02-03T05:25:36;7;6;
40569;PMS5003;26270;34.428;-119.710;2023-02-03T05:28:04;5;4;
40569;PMS5003;26270;34.428;-119.710;2023-02-03T05:30:32;4;4;
40569;PMS5003;26270;34.428;-119.710;2023-02-03T05:33:00;4;4;
40569;PMS5003;26270;34.428;-119.710;2023-02-03T05:35:30;4;4;
40569;PMS5003;26270;34.428;-119.710;2023-02-03T05:37:58;4;3;
40569;PMS5003;26270;34.428;-119.710;2023-02-03T05:40:27;4;4;
40569;PMS5003;26270;34.428;-119.710;2023-02-03T05:42:56;2;2;
40569;PMS5003;26270;34.428;-119.710;2023-02-03T05:45:25;3;3;
40569;PMS5003;26270;34.428;-119.710;2023-02-03T05:47:53;8;6;
40569;PMS5003;26270;34.428;-119.710;2023-02-03T05:50:21;6;5;
40569;PMS5003;26270;34.428;-119.710;2023-02-03T05:52:48;6;6;
40569;PMS5003;26270;34.428;-119.710;2023-02-03T05:55:17;6;6;
40569;PMS5003;26270;34.428;-119.710;2023-02-03T05:57:45;9;9;
40569;PMS5003;26270;34.428;-119.710;2023-02-03T06:00:14;9;8;
40569;PMS5003;26270;34.428;-119.710;2023-02-03T06:02:42;8;6;
40569;PMS5003;26270;34.428;-119.710;2023-02-03T06:05:10;4;3;
40569;PMS5003;26270;34.428;-119.710;2023-02-03T06:07:38;4;4;
40569;PMS5003;26270;34.428;-119.710;2023-02-03T06:10:07;6;6;
40569;PMS5003;26270;34.428;-119.710;2023-02-03T06:12:36;6;5;
40569;PMS5003;26270;34.428;-119.710;2023-02-03T06:15:05;8;8;
40569;PMS5003;26270;34.428;-119.710;2023-02-03T06:17:33;7;7;
40569;PMS5003;26270;34.428;-119.710;2023-02-03T06:20:02;7;6;
40569;PMS5003;26270;34.428;-119.710;2023-02-03T06:22:31;7;6;
40569;PMS5003;26270;34.428;-119.710;2023-02-03T06:25:00;5;4;
40569;PMS5003;26270;34.428;-119.710;2023-02-03T06:27:28;5;5;
40569;PMS5003;26270;34.428;-119.710;2023-02-03T06:29:57;6;6;
40569;PMS5003;26270;34.428;-119.710;2023-02-03T06:32:24;6;6;
40569;PMS5003;26270;34.428;-119.710;2023-02-03T06:34:52;6;6;
40569;PMS5003;26270;34.428;-119.710;2023-02-03T06:37:21;5;5;
40569;PMS5003;26270;34.428;-119.710;2023-02-03T06:39:49;5;4;
40569;PMS5003;26270;34.428;-119.710;2023-02-03T06:42:17;4;4;
40569;PMS5003;26270;34.428;-119.710;2023-02-03T06:44:44;5;4;
40569;PMS5003;26270;34.428;-119.710;2023-02-03T06:47:12;5;5;
40569;PMS5003;26270;34.428;-119.710;2023-02-03T06:49:40;7;6;
40569;PMS5003;26270;34.428;-119.710;2023-02-03T06:52:07;4;3;
40569;PMS5003;26270;34.428;-119.710;2023-02-03T06:54:35;4;4;
40569;PMS5003;26270;34.428;-119.710;2023-02-03T06:57:03;2;1;
40569;PMS5003;26270;34.428;-119.710;2023-02-03T06:59:30;3;3;
40569;PMS5003;26270;34.428;-119.710;2023-02-03T07:01:58;2;2;
40569;PMS5003;26270;34.428;-119.710;2023-02-03T07:04:27;4;4;
40569;PMS5003;26270;34.428;-119.710;2023-02-03T07:06:54;4;3;
40569;PMS5003;26270;34.428;-119.710;2023-02-03T07:09:23;3;3;
40569;PMS5003;26270;34.428;-119.710;2023-02-03T07:11:51;4;3;
40569;PMS5003;26270;34.428;-119.710;2023-02-03T07:14:18;3;2;
40569;PMS5003;26270;34.428;-119.710;2023-02-03T07:16:46;3;3;
40569;PMS5003;26270;34.428;-119.710;2023-02-03T07:19:14;4;3;
40569;PMS5003;26270;34.428;-119.710;2023-02-03T07:21:42;2;2;
40569;PMS5003;26270;34.428;-119.710;2023-02-03T07:24:10;3;3;
40569;PMS5003;26270;34.428;-119.710;2023-02-03T07:26:37;2;2;
40569;PMS5003;26270;34.428;-119.710;2023-02-03T07:29:05;2;2;
40569;PMS5003;26270;34.428;-119.710;2023-02-03T07:31:34;2;2;
40569;PMS5003;26270;34.428;-119.710;2023-02-03T07:34:02;5;4;
40569;PMS5003;26270;34.428;-119.710;2023-02-03T07:36:30;2;2;
40569;PMS5003;26270;34.428;-119.710;2023-02-03T07:38:58;2;2;
40569;PMS5003;26270;34.428;-119.710;2023-02-03T07:41:26;2;2;
40569;PMS5003;26270;34.428;-119.710;2023-02-03T07:43:54;3;2;
40569;PMS5003;26270;34.428;-119.710;2023-02-03T07:46:21;3;3;
40569;PMS5003;26270;34.428;-119.710;2023-02-03T07:48:49;2;2;
40569;PMS5003;26270;34.428;-119.710;2023-02-03T07:51:17;2;2;
40569;PMS5003;26270;34.428;-119.710;2023-02-03T07:53:45;1;1;
40569;PMS5003;26270;34.428;-119.710;2023-02-03T07:56:13;2;2;
40569;PMS5003;26270;34.428;-119.710;2023-02-03T07:58:41;1;1;
40569;PMS5003;26270;34.428;-119.710;2023-02-03T08:01:09;2;2;
40569;PMS5003;26270;34.428;-119.710;2023-02-03T08:03:38;2;2;
40569;PMS5003;26270;34.428;-119.710;2023-02-03T08:06:07;1;1;
40569;PMS5003;26270;34.428;-119.710;2023-02-03T08:08:35;2;2;
40569;PMS5003;26270;34.428;-119.710;2023-02-03T08:11:03;4;2;
40569;PMS5003;26270;34.428;-119.710;2023-02-03T08:13:31;2;2;
40569;PMS5003;26270;34.428;-119.710;2023-02-03T08:16:00;3;3;
40569;PMS5003;26270;34.428;-119.710;2023-02-03T08:18:28;2;2;
40569;PMS5003;26270;34.428;-119.710;2023-02-03T08:20:56;1;1;
40569;PMS5003;26270;34.428;-119.710;2023-02-03T08:23:24;1;1;
40569;PMS5003;26270;34.428;-119.710;2023-02-03T08:25:52;2;1;
40569;PMS5003;26270;34.428;-119.710;2023-02-03T08:28:20;1;1;
40569;PMS5003;26270;34.428;-119.710;2023-02-03T08:30:48;2;2;
40569;PMS5003;26270;34.428;-119.710;2023-02-03T08:33:16;1;1;
40569;PMS5003;26270;34.428;-119.710;2023-02-03T08:35:45;1;1;
40569;PMS5003;26270;34.428;-119.710;2023-02-03T08:38:13;1;1;
40569;PMS5003;26270;34.428;-119.710;2023-02-03T08:40:41;2;1;
40569;PMS5003;26270;34.428;-119.710;2023-02-03T08:43:09;2;2;
40569;PMS5003;26270;34.428;-119.710;2023-02-03T08:45:38;2;2;
40569;PMS5003;26270;34.428;-119.710;2023-02-03T08:48:06;3;2;
40569;PMS5003;26270;34.428;-119.710;2023-02-03T08:50:34;1;1;
40569;PMS5003;26270;34.428;-119.710;2023-02-03T08:53:01;2;2;
40569;PMS5003;26270;34.428;-119.710;2023-02-03T08:55:29;2;1;
40569;PMS5003;26270;34.428;-119.710;2023-02-03T08:57:58;1;1;
40569;PMS5003;26270;34.428;-119.710;2023-02-03T09:00:25;1;1;
40569;PMS5003;26270;34.428;-119.710;2023-02-03T09:02:54;1;1;
40569;PMS5003;26270;34.428;-119.710;2023-02-03T09:05:22;1;1;
40569;PMS5003;26270;34.428;-119.710;2023-02-03T09:07:49;2;1;
40569;PMS5003;26270;34.428;-119.710;2023-02-03T09:10:17;0;0;
40569;PMS5003;26270;34.428;-119.710;2023-02-03T09:12:45;1;1;
40569;PMS5003;26270;34.428;-119.710;2023-02-03T09:15:12;1;1;
40569;PMS5003;26270;34.428;-119.710;2023-02-03T09:17:40;1;1;
40569;PMS5003;26270;34.428;-119.710;2023-02-03T09:20:08;1;1;
40569;PMS5003;26270;34.428;-119.710;2023-02-03T09:22:37;1;1;
40569;PMS5003;26270;34.428;-119.710;2023-02-03T09:25:05;1;1;
40569;PMS5003;26270;34.428;-119.710;2023-02-03T09:27:34;1;1;
40569;PMS5003;26270;34.428;-119.710;2023-02-03T09:30:02;2;1;
40569;PMS5003;26270;34.428;-119.710;2023-02-03T09:32:30;2;1;
40569;PMS5003;26270;34.428;-119.710;2023-02-03T09:34:58;0;0;
40569;PMS5003;26270;34.428;-119.710;2023-02-03T09:37:28;1;1;
40569;PMS5003;26270;34.428;-119.710;2023-02-03T09:39:56;1;1;
40569;PMS5003;26270;34.428;-119.710;2023-02-03T09:42:29;1;1;
40569;PMS5003;26270;34.428;-119.710;2023-02-03T09:45:23;1;1;
40569;PMS5003;26270;34.428;-119.710;2023-02-03T09:47:55;1;1;
40569;PMS5003;26270;34.428;-119.710;2023-02-03T09:50:31;2;1;
40569;PMS5003;26270;34.428;-119.710;2023-02-03T09:53:03;1;1;
40569;PMS5003;26270;34.428;-119.710;2023-02-03T09:55:38;1;1;
40569;PMS5003;26270;34.428;-119.710;2023-02-03T09:58:09;1;1;
40569;PMS5003;26270;34.428;-119.710;2023-02-03T10:00:41;0;0;
40569;PMS5003;26270;34.428;-119.710;2023-02-03T10:03:13;0;0;
40569;PMS5003;26270;34.428;-119.710;2023-02-03T10:05:56;1;1;
40569;PMS5003;26270;34.428;-119.710;2023-02-03T10:09:10;1;1;
40569;PMS5003;26270;34.428;-119.710;2023-02-03T10:11:53;1;1;
40569;PMS5003;26270;34.428;-119.710;2023-02-03T10:14:38;2;1;
40569;PMS5003;26270;34.428;-119.710;2023-02-03T10:17:17;1;1;
40569;PMS5003;26270;34.428;-119.710;2023-02-03T10:19:55;1;1;
40569;PMS5003;26270;34.428;-119.710;2023-02-03T10:22:29;2;2;
40569;PMS5003;26270;34.428;-119.710;2023-02-03T10:25:02;8;8;
40569;PMS5003;26270;34.428;-119.710;2023-02-03T10:27:37;2;2;
40569;PMS5003;26270;34.428;-119.710;2023-02-03T10:30:13;1;1;
40569;PMS5003;26270;34.428;-119.710;2023-02-03T10:32:46;2;2;
40569;PMS5003;26270;34.428;-119.710;2023-02-03T10:35:17;4;4;
40569;PMS5003;26270;34.428;-119.710;2023-02-03T10:37:46;8;7;
40569;PMS5003;26270;34.428;-119.710;2023-02-03T10:40:24;3;3;
40569;PMS5003;26270;34.428;-119.710;2023-02-03T10:42:53;1;1;
40569;PMS5003;26270;34.428;-119.710;2023-02-03T10:45:22;1;1;
40569;PMS5003;26270;34.428;-119.710;2023-02-03T10:47:51;2;1;
40569;PMS5003;26270;34.428;-119.710;2023-02-03T10:50:22;1;1;
40569;PMS5003;26270;34.428;-119.710;2023-02-03T10:52:51;3;2;
40569;PMS5003;26270;34.428;-119.710;2023-02-03T10:55:47;2;2;
40569;PMS5003;26270;34.428;-119.710;2023-02-03T10:58:24;2;2;
40569;PMS5003;26270;34.428;-119.710;2023-02-03T11:00:54;3;2;
40569;PMS5003;26270;34.428;-119.710;2023-02-03T11:03:30;2;2;
40569;PMS5003;26270;34.428;-119.710;2023-02-03T11:06:07;1;1;
40569;PMS5003;26270;34.428;-119.710;2023-02-03T11:08:38;2;2;
40569;PMS5003;26270;34.428;-119.710;2023-02-03T11:11:08;1;1;
40569;PMS5003;26270;34.428;-119.710;2023-02-03T11:13:40;1;1;
40569;PMS5003;26270;34.428;-119.710;2023-02-03T11:16:10;1;1;
40569;PMS5003;26270;34.428;-119.710;2023-02-03T11:18:46;1;1;
40569;PMS5003;26270;34.428;-119.710;2023-02-03T11:21:19;1;1;
40569;PMS5003;26270;34.428;-119.710;2023-02-03T11:23:50;1;1;
40569;PMS5003;26270;34.428;-119.710;2023-02-03T11:26:24;1;1;
40569;PMS5003;26270;34.428;-119.710;2023-02-03T11:28:56;0;0;
40569;PMS5003;26270;34.428;-119.710;2023-02-03T11:31:27;0;0;
40569;PMS5003;26270;34.428;-119.710;2023-02-03T11:33:58;0;0;
40569;PMS5003;26270;34.428;-119.710;2023-02-03T11:36:30;0;0;
40569;PMS5003;26270;34.428;-119.710;2023-02-03T11:39:17;0;0;
40569;PMS5003;26270;34.428;-119.710;2023-02-03T11:41:50;2;1;
40569;PMS5003;26270;34.428;-119.710;2023-02-03T11:44:19;0;0;
40569;PMS5003;26270;34.428;-119.710;2023-02-03T11:46:51;1;1;
40569;PMS5003;26270;34.428;-119.710;2023-02-03T11:50:02;0;0;
40569;PMS5003;26270;34.428;-119.710;2023-02-03T11:52:56;1;1;
40569;PMS5003;26270;34.428;-119.710;2023-02-03T11:55:40;0;0;
40569;PMS5003;26270;34.428;-119.710;2023-02-03T11:58:19;1;1;
40569;PMS5003;26270;34.428;-119.710;2023-02-03T12:01:05;1;1;
40569;PMS5003;26270;34.428;-119.710;2023-02-03T12:03:49;1;1;
40569;PMS5003;26270;34.428;-119.710;2023-02-03T12:06:41;0;0;
40569;PMS5003;26270;34.428;-119.710;2023-02-03T12:09:27;0;0;
40569;PMS5003;26270;34.428;-119.710;2023-02-03T12:12:06;1;1;
40569;PMS5003;26270;34.428;-119.710;2023-02-03T12:15:11;2;1;
40569;PMS5003;26270;34.428;-119.710;2023-02-03T12:18:02;2;0;
40569;PMS5003;26270;34.428;-119.710;2023-02-03T12:20:43;0;0;
40569;PMS5003;26270;34.428;-119.710;2023-02-03T12:23:24;0;0;
40569;PMS5003;26270;34.428;-119.710;2023-02-03T12:26:04;2;2;
40569;PMS5003;26270;34.428;-119.710;2023-02-03T12:28:45;1;0;
40569;PMS5003;26270;34.428;-119.710;2023-02-03T12:31:22;1;0;
40569;PMS5003;26270;34.428;-119.710;2023-02-03T12:33:58;0;0;
40569;PMS5003;26270;34.428;-119.710;2023-02-03T12:36:37;0;0;
40569;PMS5003;26270;34.428;-119.710;2023-02-03T12:39:11;0;0;
40569;PMS5003;26270;34.428;-119.710;2023-02-03T12:41:47;0;0;
40569;PMS5003;26270;34.428;-119.710;2023-02-03T12:44:21;1;1;
40569;PMS5003;26270;34.428;-119.710;2023-02-03T12:46:56;0;0;
40569;PMS5003;26270;34.428;-119.710;2023-02-03T12:49:35;1;1;
40569;PMS5003;26270;34.428;-119.710;2023-02-03T12:52:13;0;0;
40569;PMS5003;26270;34.428;-119.710;2023-02-03T12:54:50;3;3;
40569;PMS5003;26270;34.428;-119.710;2023-02-03T12:57:24;1;1;
40569;PMS5003;26270;34.428;-119.710;2023-02-03T12:59:59;0;0;
40569;PMS5003;26270;34.428;-119.710;2023-02-03T13:02:34;1;1;
40569;PMS5003;26270;34.428;-119.710;2023-02-03T13:05:13;0;0;
40569;PMS5003;26270;34.428;-119.710;2023-02-03T13:07:49;1;1;
40569;PMS5003;26270;34.428;-119.710;2023-02-03T13:10:23;1;1;
40569;PMS5003;26270;34.428;-119.710;2023-02-03T13:12:57;0;0;
40569;PMS5003;26270;34.428;-119.710;2023-02-03T13:15:28;0;0;
40569;PMS5003;26270;34.428;-119.710;2023-02-03T13:18:00;1;0;
40569;PMS5003;26270;34.428;-119.710;2023-02-03T13:20:34;0;0;
40569;PMS5003;26270;34.428;-119.710;2023-02-03T13:23:04;0;0;
40569;PMS5003;26270;34.428;-119.710;2023-02-03T13:25:36;0;0;
40569;PMS5003;26270;34.428;-119.710;2023-02-03T13:28:17;1;0;
40569;PMS5003;26270;34.428;-119.710;2023-02-03T13:31:03;1;1;
40569;PMS5003;26270;34.428;-119.710;2023-02-03T13:34:17;1;0;
40569;PMS5003;26270;34.428;-119.710;2023-02-03T13:37:38;1;1;
40569;PMS5003;26270;34.428;-119.710;2023-02-03T13:40:29;0;0;
40569;PMS5003;26270;34.428;-119.710;2023-02-03T13:43:04;2;1;
40569;PMS5003;26270;34.428;-119.710;2023-02-03T13:45:40;0;0;
40569;PMS5003;26270;34.428;-119.710;2023-02-03T13:48:13;0;0;
40569;PMS5003;26270;34.428;-119.710;2023-02-03T13:50:44;2;2;
40569;PMS5003;26270;34.428;-119.710;2023-02-03T13:53:15;1;1;
40569;PMS5003;26270;34.428;-119.710;2023-02-03T13:55:50;0;0;
40569;PMS5003;26270;34.428;-119.710;2023-02-03T13:58:21;1;1;
40569;PMS5003;26270;34.428;-119.710;2023-02-03T14:01:01;1;1;
40569;PMS5003;26270;34.428;-119.710;2023-02-03T14:03:46;0;0;
40569;PMS5003;26270;34.428;-119.710;2023-02-03T14:06:58;0;0;
40569;PMS5003;26270;34.428;-119.710;2023-02-03T14:10:04;1;1;
40569;PMS5003;26270;34.428;-119.710;2023-02-03T14:12:53;0;0;
40569;PMS5003;26270;34.428;-119.710;2023-02-03T14:15:29;0;0;
40569;PMS5003;26270;34.428;-119.710;2023-02-03T14:18:02;1;0;
40569;PMS5003;26270;34.428;-119.710;2023-02-03T14:21:08;0;0;
40569;PMS5003;26270;34.428;-119.710;2023-02-03T14:23:45;1;1;
40569;PMS5003;26270;34.428;-119.710;2023-02-03T14:26:21;1;1;
40569;PMS5003;26270;34.428;-119.710;2023-02-03T14:28:57;1;1;
40569;PMS5003;26270;34.428;-119.710;2023-02-03T14:31:27;0;0;
40569;PMS5003;26270;34.428;-119.710;2023-02-03T14:34:00;1;1;
40569;PMS5003;26270;34.428;-119.710;2023-02-03T14:36:32;3;3;
40569;PMS5003;26270;34.428;-119.710;2023-02-03T14:39:21;5;5;
40569;PMS5003;26270;34.428;-119.710;2023-02-03T14:40:39;5;5;
40569;PMS5003;26270;34.428;-119.710;2023-02-03T14:43:18;5;4;
40569;PMS5003;26270;34.428;-119.710;2023-02-03T14:46:03;4;4;
40569;PMS5003;26270;34.428;-119.710;2023-02-03T14:48:48;4;4;
40569;PMS5003;26270;34.428;-119.710;2023-02-03T14:51:30;3;3;
40569;PMS5003;26270;34.428;-119.710;2023-02-03T14:54:15;2;2;
40569;PMS5003;26270;34.428;-119.710;2023-02-03T14:57:01;1;1;
40569;PMS5003;26270;34.428;-119.710;2023-02-03T14:59:42;1;1;
40569;PMS5003;26270;34.428;-119.710;2023-02-03T15:02:15;3;3;
40569;PMS5003;26270;34.428;-119.710;2023-02-03T15:04:46;1;1;
40569;PMS5003;26270;34.428;-119.710;2023-02-03T15:07:46;3;3;
40569;PMS5003;26270;34.428;-119.710;2023-02-03T15:10:16;3;3;
40569;PMS5003;26270;34.428;-119.710;2023-02-03T15:12:47;2;1;
40569;PMS5003;26270;34.428;-119.710;2023-02-03T15:15:18;1;1;
40569;PMS5003;26270;34.428;-119.710;2023-02-03T15:17:48;3;3;
40569;PMS5003;26270;34.428;-119.710;2023-02-03T15:20:34;2;2;
40569;PMS5003;26270;34.428;-119.710;2023-02-03T15:23:15;2;2;
40569;PMS5003;26270;34.428;-119.710;2023-02-03T15:25:45;2;2;
40569;PMS5003;26270;34.428;-119.710;2023-02-03T15:28:20;3;1;
40569;PMS5003;26270;34.428;-119.710;2023-02-03T15:30:51;2;2;
40569;PMS5003;26270;34.428;-119.710;2023-02-03T15:33:24;1;1;
40569;PMS5003;26270;34.428;-119.710;2023-02-03T15:35:56;3;2;
40569;PMS5003;26270;34.428;-119.710;2023-02-03T15:38:30;5;3;
40569;PMS5003;26270;34.428;-119.710;2023-02-03T15:41:03;3;2;
40569;PMS5003;26270;34.428;-119.710;2023-02-03T15:43:37;4;4;
40569;PMS5003;26270;34.428;-119.710;2023-02-03T15:46:09;2;2;
40569;PMS5003;26270;34.428;-119.710;2023-02-03T15:48:44;2;1;
40569;PMS5003;26270;34.428;-119.710;2023-02-03T15:51:15;2;2;
40569;PMS5003;26270;34.428;-119.710;2023-02-03T15:53:51;6;5;
40569;PMS5003;26270;34.428;-119.710;2023-02-03T15:56:27;2;2;
40569;PMS5003;26270;34.428;-119.710;2023-02-03T15:59:00;3;3;
40569;PMS5003;26270;34.428;-119.710;2023-02-03T16:01:29;3;3;
40569;PMS5003;26270;34.428;-119.710;2023-02-03T16:03:58;2;2;
40569;PMS5003;26270;34.428;-119.710;2023-02-03T16:06:27;3;2;
40569;PMS5003;26270;34.428;-119.710;2023-02-03T16:08:56;2;1;
40569;PMS5003;26270;34.428;-119.710;2023-02-03T16:11:27;3;3;
40569;PMS5003;26270;34.428;-119.710;2023-02-03T16:13:58;4;3;
40569;PMS5003;26270;34.428;-119.710;2023-02-03T16:16:28;4;4;
40569;PMS5003;26270;34.428;-119.710;2023-02-03T16:19:02;7;4;
40569;PMS5003;26270;34.428;-119.710;2023-02-03T16:21:32;9;9;
40569;PMS5003;26270;34.428;-119.710;2023-02-03T16:24:02;8;7;
40569;PMS5003;26270;34.428;-119.710;2023-02-03T16:26:32;8;5;
40569;PMS5003;26270;34.428;-119.710;2023-02-03T16:29:16;7;7;
40569;PMS5003;26270;34.428;-119.710;2023-02-03T16:31:44;8;7;
40569;PMS5003;26270;34.428;-119.710;2023-02-03T16:34:14;10;6;